Time;durP1;ratioP1;P1;durP2;ratioP2;P2;SDS_P1;SDS_P2;PMS_P1;PMS_P2;Temp;Humidity;BMP_temperature;BMP_pressure;BME280_temperature;BME280_humidity;BME280_pressure;Samples;Min_cycle;Max_cycle;Signal;HPM_P1;HPM_P2
2023/03/24 00:00:45;;;;;;;;;;;;;;;11.46;75.86;100097.81;4170573;28;19933;-64
2023/03/24 00:02:48;;;;;;;;;;;;;;;11.45;75.83;100082.59;4169699;28;20008;-65
2023/03/24 00:04:52;;;;;;;;;;;;;;;11.46;75.90;100092.41;4171231;28;20043;-63
2023/03/24 00:06:55;;;;;;;;;;;;;;;11.45;75.54;100088.84;4170934;28;20557;-64
2023/03/24 00:08:59;;;;;;;;;;;;;;;11.44;75.73;100087.19;4170530;28;20015;-62
2023/03/24 00:11:03;;;;;;;;;;;;;;;11.43;75.90;100082.81;4169983;28;20020;-62
2023/03/24 00:13:05;;;;;;;;;;;;;;;11.45;76.27;100083.44;4169483;28;20369;-64
2023/03/24 00:15:09;;;;;;;;;;;;;;;11.45;75.92;100078.03;4167535;28;19933;-63
2023/03/24 00:17:12;;;;;;;;;;;;;;;11.46;76.34;100079.69;4170430;28;20029;-64
2023/03/24 00:19:15;;;;;;;;;;;;;;;11.47;75.95;100081.38;4171082;28;20118;-63
2023/03/24 00:21:17;;;;;;;;;;;;;;;11.47;75.91;100078.69;4165912;28;19935;-64
2023/03/24 00:23:21;;;;;;;;;;;;;;;11.46;75.67;100073.47;4153384;28;20379;-63
2023/03/24 00:25:26;;;;;;;;;;;;;;;11.43;75.63;100079.28;4153223;28;20366;-64
2023/03/24 00:27:29;;;;;;;;;;;;;;;11.41;76.18;100074.06;4163669;28;20023;-64
2023/03/24 00:29:34;;;;;;;;;;;;;;;11.41;75.85;100084.03;4171217;28;20045;-64
2023/03/24 00:31:38;;;;;;;;;;;;;;;11.37;75.87;100072.78;4167935;28;20284;-65
2023/03/24 00:33:43;;;;;;;;;;;;;;;11.41;76.00;100076.78;4170604;28;20035;-65
2023/03/24 00:35:47;;;;;;;;;;;;;;;11.43;75.89;100069.28;4170047;28;19928;-64
2023/03/24 00:37:50;;;;;;;;;;;;;;;11.43;76.16;100063.88;4169849;28;20031;-63
2023/03/24 00:39:54;;;;;;;;;;;;;;;11.43;76.28;100068.47;4173191;28;20032;-65
2023/03/24 00:41:57;;;;;;;;;;;;;;;11.42;75.96;100062.19;4171214;28;20008;-62
2023/03/24 00:44:04;;;;;;;;;;;;;;;11.40;76.21;100058.88;4172474;28;20499;-66
2023/03/24 00:46:09;;;;;;;;;;;;;;;11.41;76.20;100057.84;4173841;28;20031;-64
2023/03/24 00:48:12;;;;;;;;;;;;;;;11.41;76.50;100040.75;4171470;28;20522;-64
2023/03/24 00:50:15;;;;;;;;;;;;;;;11.41;76.46;100046.16;4173801;28;20011;-64
2023/03/24 00:52:19;;;;;;;;;;;;;;;11.40;76.31;100045.34;4172713;28;20020;-64
2023/03/24 00:54:30;;;;;;;;;;;;;;;11.38;76.80;100049.28;4172462;28;20491;-64
2023/03/24 00:56:36;;;;;;;;;;;;;;;11.38;77.01;100041.16;4155301;28;20452;-64
2023/03/24 00:58:39;;;;;;;;;;;;;;;11.37;77.08;100026.81;4171559;28;19933;-64
2023/03/24 01:00:41;;;;;;;;;;;;;;;11.39;76.87;100032.03;4173696;28;20015;-64
2023/03/24 01:02:45;;;;;;;;;;;;;;;11.39;76.95;100029.31;4172225;28;20486;-64
2023/03/24 01:04:47;;;;;;;;;;;;;;;11.41;76.92;100029.94;4172244;28;20016;-64
2023/03/24 01:06:51;;;;;;;;;;;;;;;11.41;77.19;100021.84;4171466;28;20015;-64
2023/03/24 01:08:54;;;;;;;;;;;;;;;11.43;77.08;100025.19;4170869;28;20016;-64
2023/03/24 01:10:56;;;;;;;;;;;;;;;11.44;77.22;100026.84;4173024;28;20023;-64
2023/03/24 01:13:00;;;;;;;;;;;;;;;11.45;77.15;100026.66;4187345;28;20393;-64
2023/03/24 01:15:04;;;;;;;;;;;;;;;11.46;77.15;100022.91;4179079;28;20023;-63
2023/03/24 01:17:06;;;;;;;;;;;;;;;11.48;77.45;100014.59;4171882;28;19925;-65
2023/03/24 01:19:09;;;;;;;;;;;;;;;11.49;77.35;100008.16;4166238;28;20011;-64
2023/03/24 01:21:11;;;;;;;;;;;;;;;11.48;77.41;100003.78;4172756;28;20603;-64
2023/03/24 01:23:14;;;;;;;;;;;;;;;11.48;77.46;100004.63;4187415;28;20386;-64
2023/03/24 01:25:17;;;;;;;;;;;;;;;11.46;77.66;99993.19;4173627;28;20031;-64
2023/03/24 01:27:20;;;;;;;;;;;;;;;11.45;77.81;99991.50;4169594;28;20179;-64
2023/03/24 01:29:23;;;;;;;;;;;;;;;11.44;77.42;99989.84;4172700;28;20012;-64
2023/03/24 01:31:25;;;;;;;;;;;;;;;11.45;77.85;99983.38;4169298;28;20019;-64
2023/03/24 01:33:27;;;;;;;;;;;;;;;11.44;77.50;99979.03;4171842;28;20487;-64
2023/03/24 01:35:29;;;;;;;;;;;;;;;11.46;77.94;99979.66;4167657;28;20020;-65
2023/03/24 01:37:32;;;;;;;;;;;;;;;11.48;77.77;99974.88;4172573;28;20004;-63
2023/03/24 01:39:34;;;;;;;;;;;;;;;11.50;77.89;99975.53;4172939;28;20031;-63
2023/03/24 01:41:38;;;;;;;;;;;;;;;11.52;77.62;99969.91;4170909;28;20064;-64
2023/03/24 01:43:40;;;;;;;;;;;;;;;11.50;77.59;99961.16;4186900;28;20210;-63
2023/03/24 01:45:51;;;;;;;;;;;;;;;11.49;77.80;99967.63;4171601;28;20367;-63
2023/03/24 01:47:54;;;;;;;;;;;;;;;11.48;77.69;99961.34;4172833;28;20019;-64
2023/03/24 01:49:56;;;;;;;;;;;;;;;11.46;78.13;99943.69;4172912;28;20035;-65
2023/03/24 01:52:00;;;;;;;;;;;;;;;11.46;78.18;99941.81;4169707;28;20027;-64
2023/03/24 01:54:03;;;;;;;;;;;;;;;11.47;78.00;99948.03;4170818;28;20510;-62
2023/03/24 01:56:06;;;;;;;;;;;;;;;11.49;77.91;99938.69;4172818;28;20019;-64
2023/03/24 01:58:12;;;;;;;;;;;;;;;11.50;77.91;99939.50;4186226;28;20383;-64
2023/03/24 02:00:36;;;;;;;;;;;;;;;11.47;78.19;99937.22;4175081;28;20443;-64
2023/03/24 02:03:14;;;;;;;;;;;;;;;11.44;77.90;99930.38;4171268;28;20015;-64
2023/03/24 02:05:23;;;;;;;;;;;;;;;11.45;78.38;99926.59;4187200;28;20030;-64
2023/03/24 02:07:30;;;;;;;;;;;;;;;11.44;78.24;99927.66;4187320;28;20027;-64
2023/03/24 02:09:32;;;;;;;;;;;;;;;11.44;78.22;99926.81;4186483;28;20023;-64
2023/03/24 02:11:35;;;;;;;;;;;;;;;11.44;78.50;99919.53;4167992;28;20028;-64
2023/03/24 02:13:40;;;;;;;;;;;;;;;11.43;78.25;99922.44;4203098;28;20054;-64
2023/03/24 02:15:44;;;;;;;;;;;;;;;11.43;78.29;99922.44;4187622;28;20605;-64
2023/03/24 02:17:50;;;;;;;;;;;;;;;11.41;78.42;99914.53;4171348;28;20446;-64
2023/03/24 02:20:10;;;;;;;;;;;;;;;11.42;78.84;99907.25;4170730;28;19995;-64
2023/03/24 02:22:30;;;;;;;;;;;;;;;11.44;78.69;99902.47;4167341;28;20059;-64
2023/03/24 02:24:51;;;;;;;;;;;;;;;11.46;78.67;99905.81;4136906;28;20035;-64
2023/03/24 02:27:00;;;;;;;;;;;;;;;11.43;78.46;99898.94;4169806;28;20016;-64
2023/03/24 02:29:06;;;;;;;;;;;;;;;11.50;78.23;99896.25;4172442;28;20039;-64
2023/03/24 02:31:17;;;;;;;;;;;;;;;11.49;78.63;99891.91;4186027;28;20019;-64
2023/03/24 02:33:37;;;;;;;;;;;;;;;11.50;78.64;99880.03;4152764;28;20642;-64
2023/03/24 02:35:57;;;;;;;;;;;;;;;11.52;78.57;99892.31;4151214;28;20128;-64
2023/03/24 02:38:08;;;;;;;;;;;;;;;11.52;78.22;99888.78;4188218;28;19963;-64
2023/03/24 02:40:31;;;;;;;;;;;;;;;11.53;78.39;99890.44;4169559;28;20024;-64
2023/03/24 02:42:39;;;;;;;;;;;;;;;11.53;78.43;99885.84;4164391;28;20460;-64
2023/03/24 02:44:42;;;;;;;;;;;;;;;11.54;78.31;99874.00;4187153;28;20019;-64
2023/03/24 02:46:45;;;;;;;;;;;;;;;11.54;78.40;99875.88;4169547;28;20035;-64
2023/03/24 02:48:51;;;;;;;;;;;;;;;11.56;78.33;99875.69;4202017;28;20039;-64
2023/03/24 02:50:54;;;;;;;;;;;;;;;11.57;78.54;99871.91;4187291;28;20032;-64
2023/03/24 02:53:00;;;;;;;;;;;;;;;11.57;78.59;99880.03;4165843;28;20450;-64
2023/03/24 02:55:04;;;;;;;;;;;;;;;11.59;78.44;99875.28;4168293;28;20019;-64
2023/03/24 02:57:07;;;;;;;;;;;;;;;11.58;78.29;99877.13;4186891;28;20015;-63
2023/03/24 02:59:36;;;;;;;;;;;;;;;11.56;78.62;99870.28;4177311;28;20028;-64
2023/03/24 03:01:43;;;;;;;;;;;;;;;11.57;78.69;99861.94;4187218;28;19978;-64
2023/03/24 03:04:09;;;;;;;;;;;;;;;11.57;79.02;99861.94;4174795;28;20023;-64
2023/03/24 03:06:12;;;;;;;;;;;;;;;11.59;79.24;99857.16;4153484;28;20012;-63
2023/03/24 03:08:16;;;;;;;;;;;;;;;11.60;79.16;99852.56;4185574;28;20011;-64
2023/03/24 03:10:18;;;;;;;;;;;;;;;11.60;79.49;99856.13;4168101;28;20020;-63
2023/03/24 03:12:20;;;;;;;;;;;;;;;11.59;80.05;99848.22;4201495;28;20023;-63
2023/03/24 03:14:24;;;;;;;;;;;;;;;11.59;79.88;99853.63;4170758;28;20530;-64
2023/03/24 03:16:37;;;;;;;;;;;;;;;11.57;80.00;99839.47;4170147;28;19992;-63
2023/03/24 03:18:40;;;;;;;;;;;;;;;11.53;80.63;99848.00;4171756;28;20016;-64
2023/03/24 03:20:49;;;;;;;;;;;;;;;11.52;81.10;99840.94;4171628;28;20024;-64
2023/03/24 03:22:53;;;;;;;;;;;;;;;11.53;81.34;99837.16;4170289;28;19925;-64
2023/03/24 03:24:55;;;;;;;;;;;;;;;11.53;81.28;99847.16;4182780;28;20023;-63
2023/03/24 03:26:58;;;;;;;;;;;;;;;11.50;81.54;99837.63;4170323;28;20016;-63
2023/03/24 03:29:01;;;;;;;;;;;;;;;11.49;81.67;99835.13;4186063;28;20011;-64
2023/03/24 03:31:07;;;;;;;;;;;;;;;11.47;81.69;99832.63;4185728;28;20015;-64
2023/03/24 03:33:13;;;;;;;;;;;;;;;11.48;82.17;99836.13;4170432;28;20311;-63
2023/03/24 03:35:17;;;;;;;;;;;;;;;11.46;82.27;99825.53;4153407;28;19976;-63
2023/03/24 03:37:21;;;;;;;;;;;;;;;11.46;82.66;99824.72;4170610;28;19925;-64
2023/03/24 03:39:24;;;;;;;;;;;;;;;11.44;82.69;99815.94;4169465;28;20303;-63
2023/03/24 03:41:26;;;;;;;;;;;;;;;11.44;83.15;99824.06;4168619;28;20023;-63
2023/03/24 03:43:28;;;;;;;;;;;;;;;11.43;82.99;99822.41;4169343;28;20540;-64
2023/03/24 03:45:30;;;;;;;;;;;;;;;11.44;83.34;99811.41;4170165;28;20023;-64
2023/03/24 03:47:32;;;;;;;;;;;;;;;11.44;83.36;99815.94;4185614;28;20020;-64
2023/03/24 03:49:36;;;;;;;;;;;;;;;11.42;83.73;99808.03;4184517;28;20023;-64
2023/03/24 03:51:38;;;;;;;;;;;;;;;11.42;83.70;99808.03;4169293;28;20051;-64
2023/03/24 03:53:41;;;;;;;;;;;;;;;11.44;83.92;99797.03;4170826;28;20020;-63
2023/03/24 03:55:44;;;;;;;;;;;;;;;11.44;83.91;99800.56;4171200;28;20016;-64
2023/03/24 03:57:46;;;;;;;;;;;;;;;11.45;84.21;99802.22;4169665;28;20421;-64
2023/03/24 04:00:06;;;;;;;;;;;;;;;11.45;84.24;99802.22;4169701;28;20031;-64
2023/03/24 04:02:20;;;;;;;;;;;;;;;11.45;84.22;99802.22;4170025;28;20020;-64
2023/03/24 04:04:27;;;;;;;;;;;;;;;11.43;84.46;99788.09;4185980;28;19925;-64
2023/03/24 04:06:57;;;;;;;;;;;;;;;11.43;84.64;99789.97;4172685;28;20351;-64
2023/03/24 04:09:01;;;;;;;;;;;;;;;11.45;84.81;99788.69;4183887;28;19960;-63
2023/03/24 04:11:11;;;;;;;;;;;;;;;11.48;84.79;99787.47;4201265;28;20438;-63
2023/03/24 04:13:27;;;;;;;;;;;;;;;11.48;84.72;99779.34;4175587;28;20023;-64
2023/03/24 04:15:52;;;;;;;;;;;;;;;11.51;84.91;99776.25;4173775;28;20019;-64
2023/03/24 04:18:24;;;;;;;;;;;;;;;11.51;84.94;99771.66;4173081;28;20024;-64
2023/03/24 04:20:31;;;;;;;;;;;;;;;11.51;85.19;99771.66;4171116;28;20011;-64
2023/03/24 04:22:38;;;;;;;;;;;;;;;11.52;85.17;99767.09;4171294;28;20047;-64
2023/03/24 04:24:53;;;;;;;;;;;;;;;11.50;85.62;99756.50;4173344;28;20351;-64
2023/03/24 04:27:01;;;;;;;;;;;;;;;11.50;85.94;99764.59;4171965;28;20463;-63
2023/03/24 04:29:08;;;;;;;;;;;;;;;11.54;86.14;99762.31;4204558;28;20023;-64
2023/03/24 04:31:13;;;;;;;;;;;;;;;11.56;85.85;99759.41;4185390;28;20023;-64
2023/03/24 04:33:17;;;;;;;;;;;;;;;11.57;86.00;99755.63;4172219;28;20054;-64
2023/03/24 04:35:30;;;;;;;;;;;;;;;11.57;86.04;99750.22;4203938;28;20004;-64
2023/03/24 04:38:10;;;;;;;;;;;;;;;11.56;86.55;99744.00;4172289;28;20012;-63
2023/03/24 04:40:16;;;;;;;;;;;;;;;11.57;86.67;99736.69;4172658;28;20019;-64
2023/03/24 04:42:18;;;;;;;;;;;;;;;11.58;86.75;99727.56;4173317;28;20051;-64
2023/03/24 04:44:21;;;;;;;;;;;;;;;11.59;86.78;99740.06;4168463;28;20048;-64
2023/03/24 04:46:41;;;;;;;;;;;;;;;11.60;87.00;99730.88;4171565;28;20462;-64
2023/03/24 04:48:50;;;;;;;;;;;;;;;11.61;86.86;99722.56;4172692;28;20020;-64
2023/03/24 04:50:59;;;;;;;;;;;;;;;11.62;86.90;99729.63;4173977;28;20020;-64
2023/03/24 04:53:06;;;;;;;;;;;;;;;11.66;86.88;99720.09;4188471;28;20015;-63
2023/03/24 04:55:17;;;;;;;;;;;;;;;11.68;86.94;99734.22;4171981;28;20016;-64
2023/03/24 04:57:19;;;;;;;;;;;;;;;11.68;86.83;99725.28;4172274;28;20011;-64
2023/03/24 04:59:24;;;;;;;;;;;;;;;11.68;86.89;99730.69;4188489;28;20019;-63
2023/03/24 05:01:28;;;;;;;;;;;;;;;11.68;86.90;99731.50;4170482;28;19925;-64
2023/03/24 05:03:52;;;;;;;;;;;;;;;11.70;86.94;99724.00;4173147;28;19963;-64
2023/03/24 05:05:54;;;;;;;;;;;;;;;11.72;87.16;99727.38;4188108;28;20023;-63
2023/03/24 05:07:57;;;;;;;;;;;;;;;11.72;87.00;99713.84;4165723;28;20000;-64
2023/03/24 05:09:59;;;;;;;;;;;;;;;11.71;87.17;99711.34;4171639;28;20526;-63
2023/03/24 05:12:03;;;;;;;;;;;;;;;11.72;87.35;99702.16;4170459;28;20044;-64
2023/03/24 05:14:13;;;;;;;;;;;;;;;11.73;87.05;99706.53;4170909;28;20666;-64
2023/03/24 05:16:15;;;;;;;;;;;;;;;11.75;87.51;99709.84;4172251;28;20697;-63
2023/03/24 05:18:25;;;;;;;;;;;;;;;11.68;87.55;99700.94;4186064;28;20223;-63
2023/03/24 05:20:28;;;;;;;;;;;;;;;11.73;87.43;99712.78;4169807;28;20020;-64
2023/03/24 05:22:39;;;;;;;;;;;;;;;11.75;87.41;99714.44;4177471;28;19970;-64
2023/03/24 05:24:41;;;;;;;;;;;;;;;11.76;87.41;99716.13;4170786;28;20007;-64
2023/03/24 05:26:43;;;;;;;;;;;;;;;11.76;87.60;99710.72;4169615;28;20019;-62
2023/03/24 05:28:53;;;;;;;;;;;;;;;11.79;87.46;99707.59;4171287;28;20498;-63
2023/03/24 05:30:55;;;;;;;;;;;;;;;11.81;87.28;99703.63;4170832;28;20525;-63
2023/03/24 05:33:18;;;;;;;;;;;;;;;11.84;87.45;99702.38;4154811;28;20004;-64
2023/03/24 05:35:20;;;;;;;;;;;;;;;11.88;87.11;99709.00;4155795;28;20020;-65
2023/03/24 05:37:22;;;;;;;;;;;;;;;11.90;86.74;99712.34;4157156;28;20370;-63
2023/03/24 05:39:25;;;;;;;;;;;;;;;11.90;86.87;99702.34;4178249;28;20027;-62
2023/03/24 05:41:35;;;;;;;;;;;;;;;11.89;86.94;99708.78;4180600;28;20012;-64
2023/03/24 05:43:37;;;;;;;;;;;;;;;11.93;86.83;99708.41;4170926;28;20629;-62
2023/03/24 05:45:47;;;;;;;;;;;;;;;11.93;86.57;99709.25;4170437;28;20011;-63
2023/03/24 05:47:58;;;;;;;;;;;;;;;11.94;86.38;99702.78;4186873;28;20023;-62
2023/03/24 05:50:13;;;;;;;;;;;;;;;11.96;86.56;99716.09;4203511;28;20030;-62
2023/03/24 05:52:16;;;;;;;;;;;;;;;11.95;86.52;99709.88;4166012;28;20717;-62
2023/03/24 05:54:21;;;;;;;;;;;;;;;11.96;86.38;99714.25;4187018;28;20015;-62
2023/03/24 05:56:24;;;;;;;;;;;;;;;11.97;86.41;99699.66;4169876;28;20019;-62
2023/03/24 05:58:38;;;;;;;;;;;;;;;11.99;86.58;99696.72;4170700;28;20028;-63
2023/03/24 06:00:40;;;;;;;;;;;;;;;12.02;86.38;99704.44;4186209;28;20030;-63
2023/03/24 06:02:54;;;;;;;;;;;;;;;12.03;86.48;99693.41;4184788;28;20017;-63
2023/03/24 06:05:02;;;;;;;;;;;;;;;12.06;86.09;99690.25;4169762;28;20681;-62
2023/03/24 06:07:04;;;;;;;;;;;;;;;12.10;85.58;99676.31;4170443;28;20020;-63
2023/03/24 06:09:11;;;;;;;;;;;;;;;12.12;85.92;99685.88;4170391;28;20016;-63
2023/03/24 06:11:13;;;;;;;;;;;;;;;12.12;85.58;99683.19;4181120;28;20056;-62
2023/03/24 06:13:24;;;;;;;;;;;;;;;12.13;85.49;99674.03;4186001;28;20000;-62
2023/03/24 06:15:27;;;;;;;;;;;;;;;12.16;85.63;99670.03;4170563;28;20015;-63
2023/03/24 06:17:33;;;;;;;;;;;;;;;12.17;85.49;99669.81;4177353;28;20020;-63
2023/03/24 06:19:47;;;;;;;;;;;;;;;12.21;85.36;99670.22;4183603;28;20011;-64
2023/03/24 06:22:16;;;;;;;;;;;;;;;12.23;85.09;99665.44;4170127;28;20015;-62
2023/03/24 06:24:19;;;;;;;;;;;;;;;12.25;84.82;99657.94;4185604;28;20051;-64
2023/03/24 06:26:21;;;;;;;;;;;;;;;12.24;85.14;99667.94;4169385;28;20486;-64
2023/03/24 06:28:29;;;;;;;;;;;;;;;12.26;84.88;99675.84;4170792;28;20406;-64
2023/03/24 06:30:33;;;;;;;;;;;;;;;12.26;84.98;99665.84;4170699;28;20040;-64
2023/03/24 06:32:35;;;;;;;;;;;;;;;12.29;84.67;99669.16;4185420;28;20050;-63
2023/03/24 06:34:39;;;;;;;;;;;;;;;12.30;85.02;99651.88;4169261;28;20051;-62
2023/03/24 06:36:53;;;;;;;;;;;;;;;12.32;84.77;99657.91;4183684;28;20019;-63
2023/03/24 06:38:56;;;;;;;;;;;;;;;12.34;85.07;99653.13;4167853;28;20016;-64
2023/03/24 06:40:59;;;;;;;;;;;;;;;12.34;84.88;99659.34;4169869;28;20024;-63
2023/03/24 06:43:01;;;;;;;;;;;;;;;12.36;85.11;99643.72;4163614;28;20031;-62
2023/03/24 06:45:05;;;;;;;;;;;;;;;12.37;85.03;99649.97;4186164;28;20032;-63
2023/03/24 06:47:07;;;;;;;;;;;;;;;12.36;85.05;99648.31;4167798;28;20412;-63
2023/03/24 06:49:09;;;;;;;;;;;;;;;12.38;84.92;99643.50;4169919;28;20011;-63
2023/03/24 06:51:11;;;;;;;;;;;;;;;12.39;85.39;99646.00;4168863;28;20012;-62
2023/03/24 06:53:16;;;;;;;;;;;;;;;12.39;85.23;99650.59;4167956;28;20439;-63
2023/03/24 06:55:21;;;;;;;;;;;;;;;12.40;85.22;99650.38;4166872;28;20020;-63
2023/03/24 06:57:26;;;;;;;;;;;;;;;12.44;84.89;99640.78;4161269;28;20043;-63
2023/03/24 07:00:04;;;;;;;;;;;;;;;12.46;85.10;99634.28;4169209;28;20023;-62
2023/03/24 07:02:12;;;;;;;;;;;;;;;12.47;84.88;99646.81;4178093;28;20428;-63
2023/03/24 07:04:16;;;;;;;;;;;;;;;12.48;84.67;99638.47;4167732;28;20466;-63
2023/03/24 07:06:36;;;;;;;;;;;;;;;12.48;84.84;99640.34;4183535;28;20027;-63
2023/03/24 07:08:48;;;;;;;;;;;;;;;12.50;85.14;99630.13;4185551;28;20626;-63
2023/03/24 07:10:50;;;;;;;;;;;;;;;12.51;85.12;99623.66;4168953;28;20031;-64
2023/03/24 07:12:52;;;;;;;;;;;;;;;12.53;84.69;99629.69;4170152;28;20019;-64
2023/03/24 07:14:54;;;;;;;;;;;;;;;12.54;84.64;99621.34;4184942;28;20028;-64
2023/03/24 07:16:58;;;;;;;;;;;;;;;12.55;84.66;99617.56;4167214;28;20483;-63
2023/03/24 07:19:31;;;;;;;;;;;;;;;12.58;84.48;99609.00;4167036;28;20004;-63
2023/03/24 07:21:51;;;;;;;;;;;;;;;12.60;84.29;99612.34;4167940;28;20021;-64
2023/03/24 07:24:02;;;;;;;;;;;;;;;12.62;84.52;99599.41;4168767;28;20399;-64
2023/03/24 07:26:11;;;;;;;;;;;;;;;12.66;84.04;99598.97;4169415;28;19991;-64
2023/03/24 07:28:13;;;;;;;;;;;;;;;12.68;83.59;99619.38;4169733;28;20019;-64
2023/03/24 07:30:15;;;;;;;;;;;;;;;12.70;83.50;99605.63;4169846;28;20467;-64
2023/03/24 07:32:19;;;;;;;;;;;;;;;12.71;83.64;99602.69;4175587;28;20016;-64
2023/03/24 07:34:21;;;;;;;;;;;;;;;12.73;83.51;99611.44;4170184;28;20618;-64
2023/03/24 07:36:23;;;;;;;;;;;;;;;12.75;83.72;99600.38;4170000;28;20067;-64
2023/03/24 07:38:25;;;;;;;;;;;;;;;12.76;83.26;99594.75;4169000;28;20024;-64
2023/03/24 07:40:34;;;;;;;;;;;;;;;12.79;83.06;99594.31;4152939;28;20032;-64
2023/03/24 07:42:37;;;;;;;;;;;;;;;12.83;82.33;99600.09;4167784;28;20015;-64
2023/03/24 07:45:02;;;;;;;;;;;;;;;12.85;82.00;99584.44;4171770;28;20023;-64
2023/03/24 07:47:05;;;;;;;;;;;;;;;12.87;81.98;99592.34;4166054;28;20557;-64
2023/03/24 07:49:07;;;;;;;;;;;;;;;12.90;81.51;99595.47;4170403;28;20020;-64
2023/03/24 07:51:09;;;;;;;;;;;;;;;12.91;81.17;99607.94;4168954;28;19928;-63
2023/03/24 07:53:25;;;;;;;;;;;;;;;12.94;81.11;99615.66;4167325;28;21434;-63
2023/03/24 07:55:27;;;;;;;;;;;;;;;12.96;81.31;99618.13;4173206;28;20016;-63
2023/03/24 07:57:37;;;;;;;;;;;;;;;12.94;82.08;99598.56;4166479;28;20478;-63
2023/03/24 07:59:42;;;;;;;;;;;;;;;12.95;82.71;99616.50;4202580;28;20041;-64
2023/03/24 08:01:57;;;;;;;;;;;;;;;12.92;83.14;99628.59;4169001;28;20036;-63
2023/03/24 08:04:11;;;;;;;;;;;;;;;12.91;83.51;99635.06;4170000;28;20011;-63
2023/03/24 08:06:45;;;;;;;;;;;;;;;12.89;84.17;99606.53;4156952;28;20016;-63
2023/03/24 08:08:47;;;;;;;;;;;;;;;12.89;84.57;99607.34;4166543;28;20051;-63
2023/03/24 08:10:49;;;;;;;;;;;;;;;12.89;84.75;99620.91;4170150;28;20020;-63
2023/03/24 08:12:53;;;;;;;;;;;;;;;12.90;84.71;99609.03;4170574;28;19925;-63
2023/03/24 08:14:55;;;;;;;;;;;;;;;12.89;85.05;99645.28;4171434;28;20011;-64
2023/03/24 08:16:57;;;;;;;;;;;;;;;12.90;84.84;99609.03;4171162;28;19933;-64
2023/03/24 08:18:59;;;;;;;;;;;;;;;12.89;85.24;99609.25;4169752;28;20019;-64
2023/03/24 08:21:01;;;;;;;;;;;;;;;12.87;85.66;99622.16;4170291;28;20020;-63
2023/03/24 08:23:03;;;;;;;;;;;;;;;12.83;85.93;99610.94;4169723;28;20003;-63
2023/03/24 08:25:05;;;;;;;;;;;;;;;12.82;86.28;99605.75;4168612;28;20370;-63
2023/03/24 08:27:07;;;;;;;;;;;;;;;12.80;86.33;99608.66;4168885;28;20619;-63
2023/03/24 08:29:11;;;;;;;;;;;;;;;12.76;86.42;99619.13;4170881;28;20442;-63
2023/03/24 08:31:13;;;;;;;;;;;;;;;12.75;86.53;99594.97;4172234;28;19965;-64
2023/03/24 08:33:15;;;;;;;;;;;;;;;12.73;86.78;99589.75;4169168;28;19929;-63
2023/03/24 08:35:18;;;;;;;;;;;;;;;12.75;86.87;99619.34;4171033;28;20027;-63
2023/03/24 08:37:20;;;;;;;;;;;;;;;12.73;86.67;99597.06;4169166;28;20017;-63
2023/03/24 08:39:23;;;;;;;;;;;;;;;12.73;86.95;99591.66;4171341;28;20019;-66
2023/03/24 08:41:29;;;;;;;;;;;;;;;12.71;86.88;99601.84;4170137;28;20019;-63
2023/03/24 08:43:31;;;;;;;;;;;;;;;12.69;87.43;99606.66;4171176;28;20015;-64
2023/03/24 08:45:35;;;;;;;;;;;;;;;12.66;87.21;99601.69;4170758;28;20646;-63
2023/03/24 08:47:37;;;;;;;;;;;;;;;12.64;87.71;99588.34;4167390;28;20626;-63
2023/03/24 08:49:39;;;;;;;;;;;;;;;12.65;87.55;99587.31;4170027;28;20055;-63
2023/03/24 08:51:41;;;;;;;;;;;;;;;12.65;87.51;99583.75;4170094;28;20035;-63
2023/03/24 08:53:43;;;;;;;;;;;;;;;12.67;87.34;99603.34;4170518;28;20369;-63
2023/03/24 08:55:45;;;;;;;;;;;;;;;12.66;87.85;99597.09;4176600;28;19971;-63
2023/03/24 08:57:47;;;;;;;;;;;;;;;12.67;87.82;99590.63;4171100;28;20055;-63
2023/03/24 08:59:49;;;;;;;;;;;;;;;12.66;87.88;99598.97;4169478;28;19926;-63
2023/03/24 09:01:53;;;;;;;;;;;;;;;12.67;87.55;99595.22;4172156;28;20004;-63
2023/03/24 09:03:55;;;;;;;;;;;;;;;12.68;87.97;99599.56;4174027;28;20019;-63
2023/03/24 09:05:57;;;;;;;;;;;;;;;12.69;87.96;99598.53;4173938;28;20048;-63
2023/03/24 09:08:00;;;;;;;;;;;;;;;12.68;87.99;99602.28;4171270;28;20116;-64
2023/03/24 09:10:02;;;;;;;;;;;;;;;12.70;87.73;99601.03;4173612;28;20024;-64
2023/03/24 09:12:04;;;;;;;;;;;;;;;12.71;87.78;99613.53;4172614;28;20012;-64
2023/03/24 09:14:06;;;;;;;;;;;;;;;12.73;87.72;99607.91;4173894;28;19936;-64
2023/03/24 09:16:08;;;;;;;;;;;;;;;12.73;87.81;99610.63;4173427;28;20023;-64
2023/03/24 09:18:11;;;;;;;;;;;;;;;12.73;87.71;99616.84;4172377;28;20015;-64
2023/03/24 09:20:14;;;;;;;;;;;;;;;12.76;87.73;99621.84;4172645;28;20035;-64
2023/03/24 09:22:16;;;;;;;;;;;;;;;12.78;87.30;99622.44;4172545;28;20011;-64
2023/03/24 09:24:18;;;;;;;;;;;;;;;12.80;86.97;99619.50;4172476;28;20059;-64
2023/03/24 09:26:21;;;;;;;;;;;;;;;12.82;86.68;99620.13;4173041;28;20024;-63
2023/03/24 09:28:24;;;;;;;;;;;;;;;12.84;86.63;99626.16;4173451;28;20423;-64
2023/03/24 09:30:26;;;;;;;;;;;;;;;12.85;86.42;99616.97;4173278;28;20319;-64
2023/03/24 09:32:28;;;;;;;;;;;;;;;12.86;86.29;99631.34;4172132;28;19933;-64
2023/03/24 09:34:32;;;;;;;;;;;;;;;12.88;86.32;99621.13;4170947;28;19931;-64
2023/03/24 09:36:34;;;;;;;;;;;;;;;12.91;86.45;99628.81;4173201;28;20016;-63
2023/03/24 09:38:36;;;;;;;;;;;;;;;12.92;86.29;99625.88;4172913;28;20016;-62
2023/03/24 09:40:39;;;;;;;;;;;;;;;12.96;86.27;99626.25;4172528;28;20028;-64
2023/03/24 09:42:41;;;;;;;;;;;;;;;12.98;86.23;99606.03;4172056;28;20560;-64
2023/03/24 09:44:43;;;;;;;;;;;;;;;13.03;86.25;99613.50;4172026;28;20024;-64
2023/03/24 09:46:46;;;;;;;;;;;;;;;13.08;86.20;99626.41;4171715;28;20960;-63
2023/03/24 09:48:49;;;;;;;;;;;;;;;13.12;86.02;99614.91;4172083;28;20015;-64
2023/03/24 09:50:53;;;;;;;;;;;;;;;13.18;85.56;99613.16;4171625;28;20465;-64
2023/03/24 09:52:56;;;;;;;;;;;;;;;13.26;85.62;99614.75;4171469;28;20031;-64
2023/03/24 09:55:01;;;;;;;;;;;;;;;13.31;85.19;99623.09;4171518;28;20739;-63
2023/03/24 09:57:03;;;;;;;;;;;;;;;13.38;84.93;99625.75;4172444;28;20438;-64
2023/03/24 09:59:06;;;;;;;;;;;;;;;13.42;85.00;99629.69;4172315;28;20023;-64
2023/03/24 10:01:11;;;;;;;;;;;;;;;13.47;84.22;99621.72;4172560;28;20019;-64
2023/03/24 10:03:14;;;;;;;;;;;;;;;13.50;84.36;99622.09;4169129;28;20023;-64
2023/03/24 10:05:17;;;;;;;;;;;;;;;13.53;83.98;99634.38;4172485;28;20016;-64
2023/03/24 10:07:23;;;;;;;;;;;;;;;13.58;83.82;99636.41;4171287;28;20019;-64
2023/03/24 10:09:26;;;;;;;;;;;;;;;13.59;82.82;99638.91;4169307;28;20015;-65
2023/03/24 10:11:29;;;;;;;;;;;;;;;13.61;82.25;99641.41;4169119;28;20015;-63
2023/03/24 10:13:34;;;;;;;;;;;;;;;13.64;82.05;99646.38;4170925;28;20016;-64
2023/03/24 10:15:38;;;;;;;;;;;;;;;13.62;81.09;99638.47;4167015;28;20415;-64
2023/03/24 10:17:41;;;;;;;;;;;;;;;13.65;81.04;99638.03;4168407;28;20017;-64
2023/03/24 10:19:44;;;;;;;;;;;;;;;13.65;81.08;99632.59;4171403;28;19933;-64
2023/03/24 10:21:48;;;;;;;;;;;;;;;13.68;80.86;99623.16;4171064;28;20394;-63
2023/03/24 10:23:53;;;;;;;;;;;;;;;13.69;80.78;99633.78;4171215;28;20017;-63
2023/03/24 10:25:56;;;;;;;;;;;;;;;13.71;80.46;99633.56;4171188;28;20019;-65
2023/03/24 10:27:58;;;;;;;;;;;;;;;13.73;80.01;99622.47;4202499;28;19979;-65
2023/03/24 10:30:01;;;;;;;;;;;;;;;13.74;79.89;99638.53;4172760;28;20027;-65
2023/03/24 10:32:03;;;;;;;;;;;;;;;13.76;80.05;99636.44;4168329;28;20031;-64
2023/03/24 10:34:06;;;;;;;;;;;;;;;13.77;79.92;99635.38;4171035;28;20023;-63
2023/03/24 10:36:09;;;;;;;;;;;;;;;13.80;79.43;99634.94;4172081;28;20597;-64
2023/03/24 10:38:15;;;;;;;;;;;;;;;13.84;79.20;99651.56;4172119;28;20023;-64
2023/03/24 10:40:26;;;;;;;;;;;;;;;13.86;78.54;99635.91;4171134;28;20043;-64
2023/03/24 10:42:28;;;;;;;;;;;;;;;13.90;78.24;99636.28;4171537;28;20102;-63
2023/03/24 10:44:30;;;;;;;;;;;;;;;13.95;77.26;99623.72;4173413;28;20011;-64
2023/03/24 10:46:32;;;;;;;;;;;;;;;13.96;77.35;99643.53;4172392;28;20020;-63
2023/03/24 10:48:35;;;;;;;;;;;;;;;14.01;77.03;99640.97;4172158;28;20027;-64
2023/03/24 10:50:37;;;;;;;;;;;;;;;14.05;76.51;99626.72;4172981;28;20024;-65
2023/03/24 10:52:40;;;;;;;;;;;;;;;14.04;76.31;99624.22;4171154;28;20016;-63
2023/03/24 10:54:43;;;;;;;;;;;;;;;14.05;76.39;99628.59;4172472;28;20023;-64